createdAt,value
2016-11-17T00:00:19.088Z,1003.43
2016-11-17T00:01:27.735Z,1003.39
2016-11-17T00:02:36.376Z,1003.41
2016-11-17T00:03:45.019Z,1003.4
2016-11-17T00:04:53.646Z,1003.46
2016-11-17T00:06:02.265Z,1003.42
2016-11-17T00:07:10.890Z,1003.41
2016-11-17T00:08:19.537Z,1003.41
2016-11-17T00:09:28.195Z,1003.34
2016-11-17T00:10:36.809Z,1003.38
2016-11-17T00:11:45.445Z,1003.38
2016-11-17T00:12:54.095Z,1003.4
2016-11-17T00:14:02.743Z,1003.37
2016-11-17T00:15:11.357Z,1003.34
2016-11-17T00:16:19.979Z,1003.38
2016-11-17T00:17:28.597Z,1003.34
2016-11-17T00:18:37.221Z,1003.31
2016-11-17T00:19:45.850Z,1003.3
2016-11-17T00:20:54.518Z,1003.32
2016-11-17T00:22:03.134Z,1003.3
2016-11-17T00:23:11.780Z,1003.29
2016-11-17T00:24:20.406Z,1003.28
2016-11-17T00:25:29.045Z,1003.25
2016-11-17T00:26:37.668Z,1003.25
2016-11-17T00:27:46.291Z,1003.23
2016-11-17T00:28:55.216Z,1003.21
2016-11-17T00:30:03.849Z,1003.22
2016-11-17T00:31:12.482Z,1003.24
2016-11-17T00:32:21.124Z,1003.24
2016-11-17T00:33:29.752Z,1003.25
2016-11-17T00:34:38.420Z,1003.23
2016-11-17T00:35:47.068Z,1003.27
2016-11-17T00:36:55.712Z,1003.19
2016-11-17T00:38:04.360Z,1003.19
2016-11-17T00:39:12.994Z,1003.17
2016-11-17T00:40:21.602Z,1003.13
2016-11-17T00:41:30.226Z,1003.15
2016-11-17T00:42:39.186Z,1003.11
2016-11-17T00:43:47.787Z,1003.06
2016-11-17T00:44:56.686Z,1003.07
2016-11-17T00:46:05.303Z,1003.1
2016-11-17T00:47:13.929Z,1003.11
2016-11-17T00:48:22.571Z,1003.13
2016-11-17T00:49:31.192Z,1003.13
2016-11-17T00:50:39.792Z,1003.16
2016-11-17T00:51:48.734Z,1003.1
2016-11-17T00:52:57.384Z,1003.08
2016-11-17T00:54:06.000Z,1003.18
2016-11-17T00:55:14.646Z,1003.13
2016-11-17T00:56:23.297Z,1003.15
2016-11-17T00:57:31.939Z,1003.14
2016-11-17T00:58:40.565Z,1003.08
2016-11-17T00:59:49.502Z,1003.06
2016-11-17T01:00:58.127Z,1003.09
2016-11-17T01:02:06.748Z,1003.09
2016-11-17T01:03:15.374Z,1003.09
2016-11-17T01:04:24.015Z,1003.06
2016-11-17T01:05:32.686Z,1003.05
2016-11-17T01:06:41.307Z,1003
2016-11-17T01:07:49.932Z,1003
2016-11-17T01:08:58.580Z,1002.97
2016-11-17T01:10:07.201Z,1002.97
2016-11-17T01:11:15.834Z,1003
2016-11-17T01:12:24.468Z,1003.04
2016-11-17T01:13:33.089Z,1002.99
2016-11-17T01:14:41.730Z,1003.04
2016-11-17T01:15:50.355Z,1003.01
2016-11-17T01:16:59.002Z,1003
2016-11-17T01:18:07.944Z,1003.03
2016-11-17T01:19:16.611Z,1003.03
2016-11-17T01:20:25.265Z,1003.02
2016-11-17T01:21:33.931Z,1003.02
2016-11-17T01:22:42.558Z,1003.07
2016-11-17T01:23:51.199Z,1003.12
2016-11-17T01:24:59.845Z,1003.08
2016-11-17T01:26:08.463Z,1003.02
2016-11-17T01:27:17.091Z,1002.94
2016-11-17T01:28:25.706Z,1002.95
2016-11-17T01:29:34.330Z,1002.95
2016-11-17T01:30:42.960Z,1002.88
2016-11-17T01:31:51.576Z,1002.88
2016-11-17T01:33:00.198Z,1002.92
2016-11-17T01:34:08.818Z,1002.91
2016-11-17T01:35:17.452Z,1002.93
2016-11-17T01:36:26.056Z,1002.87
2016-11-17T01:37:34.682Z,1002.87
2016-11-17T01:38:43.323Z,1002.8
2016-11-17T01:39:51.966Z,1002.81
2016-11-17T01:41:00.590Z,1002.8
2016-11-17T01:42:09.241Z,1002.76
2016-11-17T01:43:17.857Z,1002.75
2016-11-17T01:44:26.478Z,1002.65
2016-11-17T01:45:35.122Z,1002.65
2016-11-17T01:46:43.775Z,1002.64
2016-11-17T01:47:52.391Z,1002.6
2016-11-17T01:49:01.010Z,1002.63
2016-11-17T01:50:09.639Z,1002.63
2016-11-17T01:51:18.284Z,1002.63
2016-11-17T01:52:26.902Z,1002.68
2016-11-17T01:53:35.545Z,1002.62
2016-11-17T01:54:44.162Z,1002.61
2016-11-17T01:55:52.800Z,1002.65
2016-11-17T01:57:01.466Z,1002.61
2016-11-17T01:58:10.087Z,1002.61
2016-11-17T01:59:18.729Z,1002.61
2016-11-17T02:00:27.354Z,1002.56
2016-11-17T02:01:36.275Z,1002.61
2016-11-17T02:02:44.918Z,1002.6
2016-11-17T02:03:53.564Z,1002.61
2016-11-17T02:05:02.212Z,1002.54
2016-11-17T02:06:10.822Z,1002.58
2016-11-17T02:07:19.469Z,1002.51
2016-11-17T02:08:28.097Z,1002.49
2016-11-17T02:09:36.719Z,1002.51
2016-11-17T02:10:45.344Z,1002.5
2016-11-17T02:11:53.989Z,1002.45
2016-11-17T02:13:02.632Z,1002.41
2016-11-17T02:14:11.280Z,1002.39
2016-11-17T02:15:19.921Z,1002.36
2016-11-17T02:16:28.566Z,1002.31
2016-11-17T02:17:37.219Z,1002.3
2016-11-17T02:18:45.885Z,1002.27
2016-11-17T02:19:54.511Z,1002.27
2016-11-17T02:21:03.157Z,1002.25
2016-11-17T02:22:11.799Z,1002.24
2016-11-17T02:23:20.425Z,1002.21
2016-11-17T02:24:29.107Z,1002.21
2016-11-17T02:25:37.736Z,1002.21
2016-11-17T02:26:46.398Z,1002.24
2016-11-17T02:27:55.001Z,1002.25
2016-11-17T02:29:03.619Z,1002.23
2016-11-17T02:30:12.243Z,1002.21
2016-11-17T02:31:20.869Z,1002.19
2016-11-17T02:32:29.489Z,1002.13
2016-11-17T02:33:38.111Z,1002.13
2016-11-17T02:34:46.745Z,1002.08
2016-11-17T02:35:55.377Z,1002.05
2016-11-17T02:37:04.044Z,1002.07
2016-11-17T02:38:12.666Z,1002.03
2016-11-17T02:39:21.315Z,1002.05
2016-11-17T02:40:29.963Z,1002.05
2016-11-17T02:41:38.608Z,1002.03
2016-11-17T02:42:47.253Z,1002.03
2016-11-17T02:43:55.892Z,1002.05
2016-11-17T02:45:04.491Z,1002
2016-11-17T02:46:13.129Z,1002.03
2016-11-17T02:47:21.735Z,1002.09
2016-11-17T02:48:30.321Z,1002.06
2016-11-17T02:49:38.956Z,1002.03
2016-11-17T02:50:47.588Z,1002.02
2016-11-17T02:51:56.221Z,1002.01
2016-11-17T02:53:04.856Z,1001.98
2016-11-17T02:54:13.489Z,1002.02
2016-11-17T02:55:22.123Z,1002.02
2016-11-17T02:56:30.726Z,1001.96
2016-11-17T02:57:39.348Z,1002
2016-11-17T02:58:48.022Z,1002.01
2016-11-17T02:59:56.639Z,1002.08
2016-11-17T03:01:05.289Z,1002.05
2016-11-17T03:02:13.928Z,1002.1
2016-11-17T03:03:22.558Z,1002.05
2016-11-17T03:04:31.199Z,1002.08
2016-11-17T03:05:39.840Z,1002.05
2016-11-17T03:06:48.469Z,1002
2016-11-17T03:07:57.115Z,1001.96
2016-11-17T03:09:05.754Z,1001.87
2016-11-17T03:10:14.382Z,1001.88
2016-11-17T03:11:23.021Z,1001.84
2016-11-17T03:12:31.624Z,1001.9
2016-11-17T03:13:40.258Z,1001.87
2016-11-17T03:14:48.891Z,1001.84
2016-11-17T03:15:57.537Z,1001.89
2016-11-17T03:17:06.158Z,1001.88
2016-11-17T03:18:14.804Z,1001.87
2016-11-17T03:19:23.446Z,1001.84
2016-11-17T03:20:32.085Z,1001.82
2016-11-17T03:21:40.710Z,1001.88
2016-11-17T03:22:49.344Z,1001.84
2016-11-17T03:23:57.979Z,1001.84
2016-11-17T03:25:06.649Z,1001.81
2016-11-17T03:26:15.298Z,1001.83
2016-11-17T03:27:23.919Z,1001.84
2016-11-17T03:28:32.544Z,1001.77
2016-11-17T03:29:41.187Z,1001.79
2016-11-17T03:30:49.808Z,1001.76
2016-11-17T03:31:58.425Z,1001.76
2016-11-17T03:33:07.350Z,1001.74
2016-11-17T03:34:15.947Z,1001.73
2016-11-17T03:35:24.544Z,1001.78
2016-11-17T03:36:33.144Z,1001.78
2016-11-17T03:37:41.789Z,1001.78
2016-11-17T03:38:50.411Z,1001.79
2016-11-17T03:39:59.027Z,1001.76
2016-11-17T03:41:07.626Z,1001.76
2016-11-17T03:42:16.251Z,1001.76
2016-11-17T03:43:24.867Z,1001.73
2016-11-17T03:44:33.489Z,1001.7
2016-11-17T03:45:42.112Z,1001.67
2016-11-17T03:46:50.755Z,1001.67
2016-11-17T03:47:59.423Z,1001.63
2016-11-17T03:49:08.047Z,1001.69
2016-11-17T03:50:16.694Z,1001.61
2016-11-17T03:51:25.319Z,1001.63
2016-11-17T03:52:33.961Z,1001.57
2016-11-17T03:53:42.582Z,1001.64
2016-11-17T03:54:51.232Z,1001.62
2016-11-17T03:55:59.879Z,1001.57
2016-11-17T03:57:08.526Z,1001.5
2016-11-17T03:58:17.159Z,1001.53
2016-11-17T03:59:25.795Z,1001.56
2016-11-17T04:00:34.438Z,1001.52
2016-11-17T04:01:43.057Z,1001.51
2016-11-17T04:02:51.676Z,1001.51
2016-11-17T04:04:00.291Z,1001.52
2016-11-17T04:05:08.925Z,1001.52
2016-11-17T04:06:17.544Z,1001.52
2016-11-17T04:07:26.161Z,1001.52
2016-11-17T04:08:34.829Z,1001.46
2016-11-17T04:09:43.459Z,1001.46
2016-11-17T04:10:52.097Z,1001.48
2016-11-17T04:12:00.725Z,1001.43
2016-11-17T04:13:09.342Z,1001.43
2016-11-17T04:14:17.972Z,1001.4
2016-11-17T04:15:26.610Z,1001.41
2016-11-17T04:16:35.248Z,1001.34
2016-11-17T04:17:43.881Z,1001.31
2016-11-17T04:18:52.524Z,1001.31
2016-11-17T04:20:01.127Z,1001.35
2016-11-17T04:21:09.763Z,1001.29
2016-11-17T04:22:18.389Z,1001.29
2016-11-17T04:23:27.008Z,1001.27
2016-11-17T04:24:35.654Z,1001.24
2016-11-17T04:25:44.281Z,1001.25
2016-11-17T04:26:52.896Z,1001.29
2016-11-17T04:28:01.546Z,1001.26
2016-11-17T04:29:10.199Z,1001.27
2016-11-17T04:30:18.818Z,1001.25
2016-11-17T04:31:27.478Z,1001.26
2016-11-17T04:32:36.108Z,1001.26
2016-11-17T04:33:44.728Z,1001.26
2016-11-17T04:34:53.345Z,1001.26
2016-11-17T04:36:01.971Z,1001.27
2016-11-17T04:37:10.605Z,1001.27
2016-11-17T04:38:19.231Z,1001.24
2016-11-17T04:39:27.901Z,1001.21
2016-11-17T04:40:36.531Z,1001.23
2016-11-17T04:41:45.176Z,1001.21
2016-11-17T04:42:53.802Z,1001.14
2016-11-17T04:44:02.436Z,1001.14
2016-11-17T04:45:11.046Z,1001.1
2016-11-17T04:46:19.678Z,1001.07
2016-11-17T04:47:28.307Z,1001.12
2016-11-17T04:48:36.925Z,1001.11
2016-11-17T04:49:45.550Z,1001.11
2016-11-17T04:50:54.197Z,1001.12
2016-11-17T04:52:02.822Z,1001.11
2016-11-17T04:53:11.434Z,1001.09
2016-11-17T04:54:20.062Z,1001.04
2016-11-17T04:55:28.981Z,1001.1
2016-11-17T04:56:37.651Z,1001.03
2016-11-17T04:57:46.299Z,1001.09
2016-11-17T04:58:54.937Z,1000.98
2016-11-17T05:00:03.579Z,1001
2016-11-17T05:01:12.207Z,1001.01
2016-11-17T05:02:20.846Z,1000.96
2016-11-17T05:03:29.475Z,1000.97
2016-11-17T05:04:38.100Z,1000.92
2016-11-17T05:05:46.747Z,1000.99
2016-11-17T05:06:55.394Z,1001
2016-11-17T05:08:04.039Z,1001.01
2016-11-17T05:09:12.648Z,1000.97
2016-11-17T05:10:21.253Z,1000.95
2016-11-17T05:11:29.876Z,1001.01
2016-11-17T05:12:38.549Z,1000.98
2016-11-17T05:13:47.183Z,1000.95
2016-11-17T05:14:55.817Z,1001.02
2016-11-17T05:16:04.433Z,1001.05
2016-11-17T05:17:13.076Z,1001.03
2016-11-17T05:18:21.722Z,1001.05
2016-11-17T05:19:30.351Z,1000.99
2016-11-17T05:20:38.992Z,1000.99
2016-11-17T05:21:47.616Z,1001.04
2016-11-17T05:22:56.235Z,1001.05
2016-11-17T05:24:04.910Z,1000.94
2016-11-17T05:25:13.531Z,1000.99
2016-11-17T05:26:22.173Z,1001.04
2016-11-17T05:27:30.794Z,1001.03
2016-11-17T05:28:39.413Z,1000.98
2016-11-17T05:29:48.045Z,1000.93
2016-11-17T05:30:56.662Z,1000.99
2016-11-17T05:32:05.322Z,1000.93
2016-11-17T05:33:13.986Z,1000.97
2016-11-17T05:34:22.613Z,1000.95
2016-11-17T05:35:31.272Z,1000.94
2016-11-17T05:36:39.910Z,1000.98
2016-11-17T05:37:48.558Z,1000.98
2016-11-17T05:38:57.204Z,1000.99
2016-11-17T05:40:05.853Z,1000.96
2016-11-17T05:41:14.483Z,1001.02
2016-11-17T05:42:23.150Z,1000.98
2016-11-17T05:43:31.783Z,1001.02
2016-11-17T05:44:40.410Z,1000.97
2016-11-17T05:45:49.038Z,1001.03
2016-11-17T05:46:57.655Z,1000.98
2016-11-17T05:48:06.280Z,1001.04
2016-11-17T05:49:14.922Z,1001.03
2016-11-17T05:50:23.540Z,1001.01
2016-11-17T05:51:32.170Z,1001.04
2016-11-17T05:52:40.810Z,1001.08
2016-11-17T05:53:49.432Z,1001.08
2016-11-17T05:54:58.082Z,1001.08
2016-11-17T05:56:06.698Z,1001.14
2016-11-17T05:57:15.645Z,1001.14
2016-11-17T05:58:24.241Z,1001.14
2016-11-17T05:59:32.869Z,1001.16
2016-11-17T06:00:41.485Z,1001.17
2016-11-17T06:01:50.110Z,1001.19
2016-11-17T06:02:58.753Z,1001.17
2016-11-17T06:04:07.398Z,1001.15
2016-11-17T06:05:16.043Z,1001.14
2016-11-17T06:06:24.668Z,1001.18
2016-11-17T06:07:33.319Z,1001.19
2016-11-17T06:08:41.949Z,1001.16
2016-11-17T06:09:50.582Z,1001.15
2016-11-17T06:10:59.224Z,1001.15
2016-11-17T06:12:07.846Z,1001.14
2016-11-17T06:13:16.473Z,1001.19
2016-11-17T06:14:25.091Z,1001.22
2016-11-17T06:15:33.709Z,1001.25
2016-11-17T06:16:42.330Z,1001.22
2016-11-17T06:17:50.956Z,1001.18
2016-11-17T06:18:59.627Z,1001.2
2016-11-17T06:20:08.274Z,1001.2
2016-11-17T06:21:16.919Z,1001.16
2016-11-17T06:22:25.536Z,1001.17
2016-11-17T06:23:34.186Z,1001.16
2016-11-17T06:24:42.808Z,1001.17
2016-11-17T06:25:51.478Z,1001.19
2016-11-17T06:27:00.113Z,1001.16
2016-11-17T06:28:08.738Z,1001.19
2016-11-17T06:29:17.412Z,1001.19
2016-11-17T06:30:26.045Z,1001.18
2016-11-17T06:31:34.679Z,1001.21
2016-11-17T06:32:43.280Z,1001.18
2016-11-17T06:33:51.944Z,1001.19
2016-11-17T06:35:00.573Z,1001.23
2016-11-17T06:36:09.214Z,1001.24
2016-11-17T06:37:17.840Z,1001.24
2016-11-17T06:38:26.486Z,1001.27
2016-11-17T06:39:35.123Z,1001.28
2016-11-17T06:40:43.753Z,1001.24
2016-11-17T06:41:52.400Z,1001.27
2016-11-17T06:43:01.045Z,1001.25
2016-11-17T06:44:09.687Z,1001.29
2016-11-17T06:45:18.313Z,1001.28
2016-11-17T06:46:26.954Z,1001.28
2016-11-17T06:47:35.598Z,1001.3
2016-11-17T06:48:44.215Z,1001.3
2016-11-17T06:49:52.824Z,1001.32
2016-11-17T06:51:01.456Z,1001.27
2016-11-17T06:52:10.085Z,1001.34
2016-11-17T06:53:18.682Z,1001.32
2016-11-17T06:54:27.327Z,1001.28
2016-11-17T06:55:35.973Z,1001.36
2016-11-17T06:56:44.598Z,1001.3
2016-11-17T06:57:53.215Z,1001.21
2016-11-17T06:59:01.841Z,1001.34
2016-11-17T07:00:10.458Z,1001.27
2016-11-17T07:01:19.083Z,1001.28
2016-11-17T07:02:27.730Z,1001.27
2016-11-17T07:03:36.352Z,1001.27
2016-11-17T07:04:44.996Z,1001.29
2016-11-17T07:05:53.629Z,1001.26
2016-11-17T07:07:02.263Z,1001.28
2016-11-17T07:08:10.904Z,1001.2
2016-11-17T07:09:19.531Z,1001.25
2016-11-17T07:10:28.203Z,1001.27
2016-11-17T07:11:36.881Z,1001.24
2016-11-17T07:12:45.498Z,1001.21
2016-11-17T07:13:54.111Z,1001.2
2016-11-17T07:15:02.710Z,1001.18
2016-11-17T07:16:11.352Z,1001.19
2016-11-17T07:17:20.002Z,1001.21
2016-11-17T07:18:28.651Z,1001.16
2016-11-17T07:19:37.319Z,1001.18
2016-11-17T07:20:45.963Z,1001.16
2016-11-17T07:21:54.637Z,1001.12
2016-11-17T07:23:03.263Z,1001.09
2016-11-17T07:24:11.899Z,1001.06
2016-11-17T07:25:20.526Z,1001.08
2016-11-17T07:26:29.166Z,1001.08
2016-11-17T07:27:37.817Z,1001.06
2016-11-17T07:28:46.436Z,1001.09
2016-11-17T07:29:55.073Z,1001.05
2016-11-17T07:31:03.676Z,1001.09
2016-11-17T07:32:12.304Z,1001.04
2016-11-17T07:33:20.944Z,1001.06
2016-11-17T07:34:29.611Z,1001.06
2016-11-17T07:35:38.257Z,1001.03
2016-11-17T07:36:46.908Z,1001.04
2016-11-17T07:37:55.554Z,1000.99
2016-11-17T07:39:04.204Z,1000.99
2016-11-17T07:40:12.841Z,1000.98
2016-11-17T07:41:21.472Z,1000.99
2016-11-17T07:42:30.112Z,1000.98
2016-11-17T07:43:38.763Z,1000.97
2016-11-17T07:44:47.425Z,1000.97
2016-11-17T07:45:56.067Z,1001
2016-11-17T07:47:04.676Z,1001
2016-11-17T07:48:13.296Z,1000.99
2016-11-17T07:49:21.918Z,1001.01
2016-11-17T07:50:30.564Z,1001.02
2016-11-17T07:51:39.197Z,1001.03
2016-11-17T07:52:47.820Z,1001.03
2016-11-17T07:53:56.447Z,1001.03
2016-11-17T07:55:05.075Z,1001.06
2016-11-17T07:56:13.724Z,1001.04
2016-11-17T07:57:22.365Z,1001.04
2016-11-17T07:58:31.029Z,1001.01
2016-11-17T07:59:39.662Z,1000.99
2016-11-17T08:00:48.274Z,1001.01
2016-11-17T08:01:56.950Z,1001.03
2016-11-17T08:03:05.594Z,1001.02
2016-11-17T08:04:14.217Z,1001.01
2016-11-17T08:05:22.860Z,1001.01
2016-11-17T08:06:31.502Z,1000.96
2016-11-17T08:07:40.156Z,1000.92
2016-11-17T08:08:48.822Z,1000.94
2016-11-17T08:09:57.424Z,1000.9
2016-11-17T08:11:06.044Z,1000.92
2016-11-17T08:12:14.685Z,1000.91
2016-11-17T08:13:23.331Z,1000.94
2016-11-17T08:14:31.970Z,1000.96
2016-11-17T08:15:40.582Z,1000.95
2016-11-17T08:16:49.195Z,1000.95
2016-11-17T08:17:57.866Z,1000.91
2016-11-17T08:19:06.492Z,1000.87
2016-11-17T08:20:15.140Z,1000.86
2016-11-17T08:21:23.785Z,1000.84
2016-11-17T08:22:32.747Z,1000.85
2016-11-17T08:23:41.402Z,1000.82
2016-11-17T08:24:50.048Z,1000.83
2016-11-17T08:25:58.689Z,1000.81
2016-11-17T08:27:07.714Z,1000.83
2016-11-17T08:28:16.355Z,1000.79
2016-11-17T08:29:24.977Z,1000.78
2016-11-17T08:30:33.603Z,1000.77
2016-11-17T08:31:42.245Z,1000.77
2016-11-17T08:32:50.844Z,1000.76
2016-11-17T08:33:59.487Z,1000.8
2016-11-17T08:35:08.112Z,1000.77
2016-11-17T08:36:16.759Z,1000.78
2016-11-17T08:37:25.400Z,1000.79
2016-11-17T08:38:34.046Z,1000.77
2016-11-17T08:39:42.696Z,1000.79
2016-11-17T08:40:51.319Z,1000.74
2016-11-17T08:41:59.956Z,1000.74
2016-11-17T08:43:08.580Z,1000.78
2016-11-17T08:44:17.201Z,1000.74
2016-11-17T08:45:25.823Z,1000.78
2016-11-17T08:46:34.459Z,1000.77
2016-11-17T08:47:43.089Z,1000.75
2016-11-17T08:48:51.702Z,1000.77
2016-11-17T08:50:00.340Z,1000.74
2016-11-17T08:51:08.980Z,1000.74
2016-11-17T08:52:17.619Z,1000.7
2016-11-17T08:53:26.269Z,1000.69
2016-11-17T08:54:34.921Z,1000.66
2016-11-17T08:55:43.540Z,1000.62
2016-11-17T08:56:52.186Z,1000.64
2016-11-17T08:58:00.830Z,1000.66
2016-11-17T08:59:09.472Z,1000.7
2016-11-17T09:00:18.118Z,1000.65
2016-11-17T09:01:26.764Z,1000.72
2016-11-17T09:02:35.402Z,1000.7
2016-11-17T09:03:44.014Z,1000.68
2016-11-17T09:04:52.648Z,1000.62
2016-11-17T09:06:01.273Z,1000.62
2016-11-17T09:07:09.873Z,1000.7
2016-11-17T09:08:18.521Z,1000.6
2016-11-17T09:09:27.165Z,1000.65
2016-11-17T09:10:35.782Z,1000.65
2016-11-17T09:11:44.733Z,1000.58
2016-11-17T09:12:53.371Z,1000.59
2016-11-17T09:14:02.287Z,1000.62
2016-11-17T09:15:10.920Z,1000.57
2016-11-17T09:16:19.545Z,1000.58
2016-11-17T09:17:28.180Z,1000.58
2016-11-17T09:18:36.785Z,1000.54
2016-11-17T09:19:45.429Z,1000.54
2016-11-17T09:20:54.076Z,1000.53
2016-11-17T09:22:02.726Z,1000.57
2016-11-17T09:23:11.348Z,1000.54
2016-11-17T09:24:19.982Z,1000.55
2016-11-17T09:25:28.632Z,1000.51
2016-11-17T09:26:37.256Z,1000.53
2016-11-17T09:27:45.876Z,1000.5
2016-11-17T09:28:54.491Z,1000.5
2016-11-17T09:30:03.116Z,1000.5
2016-11-17T09:31:11.737Z,1000.5
2016-11-17T09:32:20.382Z,1000.46
2016-11-17T09:33:29.033Z,1000.46
2016-11-17T09:34:37.680Z,1000.49
2016-11-17T09:35:46.330Z,1000.48
2016-11-17T09:36:54.942Z,1000.44
2016-11-17T09:38:03.888Z,1000.43
2016-11-17T09:39:12.567Z,1000.42
2016-11-17T09:40:21.205Z,1000.4
2016-11-17T09:41:29.851Z,1000.39
2016-11-17T09:42:38.523Z,1000.38
2016-11-17T09:43:47.136Z,1000.42
2016-11-17T09:44:55.743Z,1000.36
2016-11-17T09:46:04.416Z,1000.34
2016-11-17T09:47:13.056Z,1000.37
2016-11-17T09:48:21.708Z,1000.34
2016-11-17T09:49:30.328Z,1000.37
2016-11-17T09:50:38.975Z,1000.47
2016-11-17T09:51:47.594Z,1000.47
2016-11-17T09:52:56.238Z,1000.46
2016-11-17T09:54:05.489Z,1000.48
2016-11-17T09:55:14.124Z,1000.46
2016-11-17T09:56:23.043Z,1000.43
2016-11-17T09:57:31.672Z,1000.39
2016-11-17T09:58:40.295Z,1000.42
2016-11-17T09:59:48.915Z,1000.41
2016-11-17T10:00:57.536Z,1000.41
2016-11-17T10:02:06.162Z,1000.39
2016-11-17T10:03:14.833Z,1000.31
2016-11-17T10:04:23.455Z,1000.32
2016-11-17T10:05:32.103Z,1000.31
2016-11-17T10:06:40.744Z,1000.28
2016-11-17T10:07:49.393Z,1000.31
2016-11-17T10:08:58.036Z,1000.29
2016-11-17T10:10:06.674Z,1000.29
2016-11-17T10:11:15.281Z,1000.29
2016-11-17T10:12:23.902Z,1000.29
2016-11-17T10:13:32.519Z,1000.28
2016-11-17T10:14:41.440Z,1000.28
2016-11-17T10:15:50.087Z,1000.23
2016-11-17T10:16:58.729Z,1000.18
2016-11-17T10:18:07.361Z,1000.16
2016-11-17T10:19:15.999Z,1000.14
2016-11-17T10:20:24.621Z,1000.23
2016-11-17T10:21:33.247Z,1000.19
2016-11-17T10:22:41.881Z,1000.12
2016-11-17T10:23:50.489Z,1000.11
2016-11-17T10:24:59.131Z,1000.15
2016-11-17T10:26:07.776Z,1000.13
2016-11-17T10:27:16.423Z,1000.14
2016-11-17T10:28:25.067Z,1000.1
2016-11-17T10:29:33.712Z,1000.06
2016-11-17T10:30:42.342Z,1000.04
2016-11-17T10:31:50.986Z,999.98
2016-11-17T10:32:59.608Z,999.94
2016-11-17T10:34:08.226Z,999.93
2016-11-17T10:35:17.125Z,999.85
2016-11-17T10:36:26.068Z,999.83
2016-11-17T10:37:34.695Z,999.79
2016-11-17T10:38:43.330Z,999.82
2016-11-17T10:39:51.955Z,999.78
2016-11-17T10:41:00.630Z,999.73
2016-11-17T10:42:09.277Z,999.76
2016-11-17T10:43:17.918Z,999.7
2016-11-17T10:44:26.539Z,999.69
2016-11-17T10:45:35.216Z,999.65
2016-11-17T10:46:44.179Z,999.65
2016-11-17T10:47:52.821Z,999.62
2016-11-17T10:49:01.457Z,999.59
2016-11-17T10:50:10.417Z,999.68
2016-11-17T10:51:19.071Z,999.69
2016-11-17T10:52:27.689Z,999.63
2016-11-17T10:53:36.309Z,999.64
2016-11-17T10:54:44.952Z,999.6
2016-11-17T10:55:53.580Z,999.57
2016-11-17T10:57:02.248Z,999.55
2016-11-17T10:58:10.848Z,999.52
2016-11-17T10:59:19.487Z,999.49
2016-11-17T11:00:28.136Z,999.56
2016-11-17T11:01:36.780Z,999.5
2016-11-17T11:02:45.471Z,999.51
2016-11-17T11:03:54.079Z,999.46
2016-11-17T11:05:03.029Z,999.42
2016-11-17T11:06:11.642Z,999.48
2016-11-17T11:07:20.293Z,999.44
2016-11-17T11:08:28.909Z,999.4
2016-11-17T11:09:37.555Z,999.41
2016-11-17T11:10:46.182Z,999.37
2016-11-17T11:11:54.819Z,999.38
2016-11-17T11:13:03.751Z,999.3
2016-11-17T11:14:12.390Z,999.28
2016-11-17T11:15:21.041Z,999.39
2016-11-17T11:16:29.667Z,999.39
2016-11-17T11:17:38.309Z,999.29
2016-11-17T11:18:46.946Z,999.21
2016-11-17T11:19:55.877Z,999.18
2016-11-17T11:21:04.517Z,999.18
2016-11-17T11:22:13.140Z,999.31
2016-11-17T11:23:21.759Z,999.31
2016-11-17T11:24:30.403Z,999.34
2016-11-17T11:25:39.031Z,999.3
2016-11-17T11:26:47.681Z,999.25
2016-11-17T11:27:56.315Z,999.19
2016-11-17T11:29:04.965Z,999.25
2016-11-17T11:30:13.636Z,999.17
2016-11-17T11:31:22.257Z,999.16
2016-11-17T11:32:30.908Z,999.19
2016-11-17T11:33:39.529Z,999.25
2016-11-17T11:34:48.176Z,999.19
2016-11-17T11:35:56.793Z,999.24
2016-11-17T11:37:05.463Z,999.27
2016-11-17T11:38:14.060Z,999.19
2016-11-17T11:39:22.998Z,999.28
2016-11-17T11:40:31.627Z,999.29
2016-11-17T11:41:40.266Z,999.28
2016-11-17T11:42:48.899Z,999.23
2016-11-17T11:43:57.540Z,999.19
2016-11-17T11:45:06.172Z,999.19
2016-11-17T11:46:14.809Z,999.16
2016-11-17T11:47:23.434Z,999.09
2016-11-17T11:48:32.050Z,999.12
2016-11-17T11:49:40.701Z,999.11
2016-11-17T11:50:49.339Z,999.1
2016-11-17T11:51:58.018Z,999.17
2016-11-17T11:53:06.667Z,999.16
2016-11-17T11:54:15.285Z,999.16
2016-11-17T11:55:23.907Z,999.14
2016-11-17T11:56:32.570Z,999.23
2016-11-17T11:57:41.199Z,999.17
2016-11-17T11:58:49.842Z,999.13
2016-11-17T11:59:58.469Z,999.13
2016-11-17T12:01:07.109Z,999.05
2016-11-17T12:02:15.753Z,999.02
2016-11-17T12:03:24.350Z,999.06
2016-11-17T12:04:32.977Z,999.04
2016-11-17T12:05:41.618Z,999.09
2016-11-17T12:06:50.239Z,999.15
2016-11-17T12:07:58.866Z,999.09
2016-11-17T12:09:07.503Z,999.1
2016-11-17T12:10:16.130Z,999.03
2016-11-17T12:11:24.753Z,999.08
2016-11-17T12:12:33.387Z,999.1
2016-11-17T12:13:42.016Z,999.19
2016-11-17T12:14:50.636Z,999.21
2016-11-17T12:15:59.265Z,999.14
2016-11-17T12:17:08.209Z,999.12
2016-11-17T12:18:16.858Z,999.06
2016-11-17T12:19:25.506Z,999.07
2016-11-17T12:20:34.148Z,999.2
2016-11-17T12:21:42.764Z,999.14
2016-11-17T12:22:51.402Z,999.16
2016-11-17T12:24:00.024Z,999.15
2016-11-17T12:25:08.653Z,999.13
2016-11-17T12:26:17.278Z,999.17
2016-11-17T12:27:25.912Z,999.19
2016-11-17T12:28:34.541Z,999.16
2016-11-17T12:29:43.137Z,999.16
2016-11-17T12:30:51.801Z,999.16
2016-11-17T12:32:00.429Z,999.14
2016-11-17T12:33:09.068Z,999.12
2016-11-17T12:34:17.672Z,999.05
2016-11-17T12:35:26.323Z,999.03
2016-11-17T12:36:34.957Z,999.06
2016-11-17T12:37:43.585Z,999.04
2016-11-17T12:38:52.235Z,999.03
2016-11-17T12:40:00.870Z,999.03
2016-11-17T12:41:09.499Z,999.03
2016-11-17T12:42:18.106Z,999.06
2016-11-17T12:43:26.725Z,999.12
2016-11-17T12:44:35.341Z,999.14
2016-11-17T12:45:44.262Z,999.1
2016-11-17T12:46:53.227Z,999.07
2016-11-17T12:48:01.848Z,999.08
2016-11-17T12:49:10.472Z,999.11
2016-11-17T12:50:19.076Z,999.19
2016-11-17T12:51:27.693Z,999.1
2016-11-17T12:52:36.311Z,999.14
2016-11-17T12:53:44.935Z,999.19
2016-11-17T12:54:53.587Z,999.14
2016-11-17T12:56:02.199Z,999.18
2016-11-17T12:57:10.845Z,999.1
2016-11-17T12:58:19.522Z,999.22
2016-11-17T12:59:28.159Z,999.2
2016-11-17T13:00:36.806Z,999.1
2016-11-17T13:01:45.437Z,999.16
2016-11-17T13:02:54.054Z,999.06
2016-11-17T13:04:02.715Z,999
2016-11-17T13:05:11.346Z,998.95
2016-11-17T13:06:19.989Z,998.95
2016-11-17T13:07:28.639Z,999.04
2016-11-17T13:08:37.279Z,999.03
2016-11-17T13:09:45.903Z,999.08
2016-11-17T13:10:54.824Z,999.12
2016-11-17T13:12:03.466Z,999.1
2016-11-17T13:13:12.095Z,999.11
2016-11-17T13:14:20.714Z,999.05
2016-11-17T13:15:29.354Z,999.07
2016-11-17T13:16:37.980Z,999.08
2016-11-17T13:17:46.618Z,999.03
2016-11-17T13:18:55.543Z,999.05
2016-11-17T13:20:04.151Z,999.08
2016-11-17T13:21:12.771Z,999.04
2016-11-17T13:22:21.414Z,999
2016-11-17T13:23:30.077Z,998.98
2016-11-17T13:24:38.698Z,999
2016-11-17T13:25:47.333Z,998.9
2016-11-17T13:26:55.962Z,998.91
2016-11-17T13:28:04.596Z,998.91
2016-11-17T13:29:13.243Z,998.87
2016-11-17T13:30:21.884Z,998.89
2016-11-17T13:31:30.504Z,998.82
2016-11-17T13:32:39.130Z,998.86
2016-11-17T13:33:47.771Z,998.85
2016-11-17T13:34:56.400Z,998.91
2016-11-17T13:36:05.020Z,998.91
2016-11-17T13:37:13.635Z,998.89
2016-11-17T13:38:22.286Z,998.96
2016-11-17T13:39:30.919Z,998.98
2016-11-17T13:40:39.552Z,999.01
2016-11-17T13:41:48.179Z,998.95
2016-11-17T13:42:56.821Z,998.99
2016-11-17T13:44:05.493Z,998.91
2016-11-17T13:45:14.154Z,998.98
2016-11-17T13:46:22.779Z,998.91
2016-11-17T13:47:31.398Z,998.95
2016-11-17T13:48:40.050Z,998.89
2016-11-17T13:49:48.709Z,998.87
2016-11-17T13:50:57.664Z,998.89
2016-11-17T13:52:06.284Z,998.89
2016-11-17T13:53:14.935Z,998.88
2016-11-17T13:54:23.580Z,998.87
2016-11-17T13:55:32.219Z,998.85
2016-11-17T13:56:40.840Z,998.87
2016-11-17T13:57:49.468Z,998.84
2016-11-17T13:58:58.140Z,998.79
2016-11-17T14:00:06.761Z,998.86